createdAt,value
2017-07-05T00:00:29.171Z,17.90
2017-07-05T00:02:56.687Z,17.90
2017-07-05T00:05:24.232Z,17.90
2017-07-05T00:07:52.575Z,17.90
2017-07-05T00:10:20.507Z,17.90
2017-07-05T00:12:48.077Z,17.90
2017-07-05T00:15:15.622Z,17.80
2017-07-05T00:17:43.138Z,17.80
2017-07-05T00:20:10.690Z,17.80
2017-07-05T00:22:39.241Z,17.80
2017-07-05T00:25:06.767Z,17.80
2017-07-05T00:27:34.323Z,17.80
2017-07-05T00:30:01.844Z,17.80
2017-07-05T00:32:29.391Z,17.70
2017-07-05T00:34:56.918Z,17.70
2017-07-05T00:37:24.581Z,17.70
2017-07-05T00:39:52.123Z,17.70
2017-07-05T00:42:19.693Z,17.70
2017-07-05T00:44:48.221Z,17.70
2017-07-05T00:47:15.734Z,17.60
2017-07-05T00:49:43.262Z,17.60
2017-07-05T00:52:11.176Z,17.60
2017-07-05T00:54:38.719Z,17.70
2017-07-05T00:57:06.232Z,17.60
2017-07-05T00:59:33.771Z,17.60
2017-07-05T01:02:01.294Z,17.60
2017-07-05T01:04:28.850Z,17.60
2017-07-05T01:06:56.368Z,17.60
2017-07-05T01:09:23.880Z,17.60
2017-07-05T01:11:51.415Z,17.60
2017-07-05T01:14:18.927Z,17.60
2017-07-05T01:16:46.454Z,17.60
2017-07-05T01:19:13.973Z,17.60
2017-07-05T01:21:41.503Z,17.50
2017-07-05T01:24:09.012Z,17.50
2017-07-05T01:26:36.547Z,17.50
2017-07-05T01:29:04.065Z,17.50
2017-07-05T01:31:31.598Z,17.50
2017-07-05T01:33:59.134Z,17.50
2017-07-05T01:36:27.050Z,17.50
2017-07-05T01:38:54.590Z,17.50
2017-07-05T01:41:22.102Z,17.50
2017-07-05T01:43:49.635Z,17.50
2017-07-05T01:46:17.163Z,17.50
2017-07-05T01:48:44.697Z,17.50
2017-07-05T01:51:12.607Z,17.50
2017-07-05T01:53:40.139Z,17.50
2017-07-05T01:56:07.654Z,17.40
2017-07-05T01:58:35.239Z,17.40
2017-07-05T02:01:02.758Z,17.40
2017-07-05T02:03:30.278Z,17.40
2017-07-05T02:05:57.807Z,17.40
2017-07-05T02:08:25.715Z,17.40
2017-07-05T02:10:53.241Z,17.40
2017-07-05T02:13:20.762Z,17.40
2017-07-05T02:15:48.292Z,17.30
2017-07-05T02:18:15.832Z,17.30
2017-07-05T02:20:43.757Z,17.30
2017-07-05T02:23:11.267Z,17.30
2017-07-05T02:25:38.832Z,17.20
2017-07-05T02:28:06.354Z,17.20
2017-07-05T02:30:33.870Z,17.20
2017-07-05T02:33:01.396Z,17.30
2017-07-05T02:35:29.303Z,17.30
2017-07-05T02:37:56.830Z,17.40
2017-07-05T02:40:24.356Z,17.30
2017-07-05T02:42:51.886Z,17.40
2017-07-05T02:45:19.435Z,17.40
2017-07-05T02:47:46.973Z,17.40
2017-07-05T02:50:14.482Z,17.40
2017-07-05T02:52:42.022Z,17.50
2017-07-05T02:55:09.542Z,17.50
2017-07-05T02:57:37.048Z,17.50
2017-07-05T03:00:04.592Z,17.50
2017-07-05T03:02:32.110Z,17.50
2017-07-05T03:05:00.052Z,17.50
2017-07-05T03:07:27.582Z,17.50
2017-07-05T03:09:55.134Z,17.50
2017-07-05T03:12:22.665Z,17.50
2017-07-05T03:14:50.210Z,17.50
2017-07-05T03:17:17.718Z,17.50
2017-07-05T03:19:45.242Z,17.50
2017-07-05T03:22:12.775Z,17.50
2017-07-05T03:24:40.691Z,17.40
2017-07-05T03:27:08.222Z,17.50
2017-07-05T03:29:35.729Z,17.40
2017-07-05T03:32:03.293Z,17.50
2017-07-05T03:34:30.819Z,17.40
2017-07-05T03:36:58.350Z,17.50
2017-07-05T03:39:25.874Z,17.50
2017-07-05T03:41:53.814Z,17.40
2017-07-05T03:44:21.322Z,17.40
2017-07-05T03:46:48.826Z,17.40
2017-07-05T03:49:16.364Z,17.30
2017-07-05T03:51:44.269Z,17.20
2017-07-05T03:54:11.791Z,17.20
2017-07-05T03:56:39.326Z,17.30
2017-07-05T03:59:06.861Z,17.20
2017-07-05T04:01:34.385Z,17.20
2017-07-05T04:04:01.933Z,17.20
2017-07-05T04:06:29.450Z,17.10
2017-07-05T04:08:56.966Z,17.10
2017-07-05T04:11:24.493Z,17.10
2017-07-05T04:13:52.718Z,17.10
2017-07-05T04:16:20.255Z,17.00
2017-07-05T04:18:48.206Z,17.00
2017-07-05T04:21:16.125Z,17.00
2017-07-05T04:23:43.638Z,17.00
2017-07-05T04:26:11.167Z,17.00
2017-07-05T04:28:38.679Z,16.90
2017-07-05T04:31:06.221Z,16.90
2017-07-05T04:33:33.736Z,16.90
2017-07-05T04:36:01.243Z,16.90
2017-07-05T04:38:28.766Z,16.90
2017-07-05T04:40:56.292Z,16.90
2017-07-05T04:43:24.225Z,16.90
2017-07-05T04:45:51.743Z,17.00
2017-07-05T04:48:19.286Z,16.90
2017-07-05T04:50:46.807Z,16.90
2017-07-05T04:53:14.360Z,16.90
2017-07-05T04:55:41.895Z,17.00
2017-07-05T04:58:09.777Z,17.00
2017-07-05T05:00:37.290Z,17.00
2017-07-05T05:03:04.814Z,17.10
2017-07-05T05:05:32.337Z,17.10
2017-07-05T05:07:59.849Z,17.10
2017-07-05T05:10:27.378Z,17.20
2017-07-05T05:12:54.894Z,17.20
2017-07-05T05:15:22.427Z,17.30
2017-07-05T05:17:49.939Z,17.30
2017-07-05T05:20:17.477Z,17.40
2017-07-05T05:22:44.999Z,17.40
2017-07-05T05:25:12.534Z,17.60
2017-07-05T05:27:40.201Z,17.70
2017-07-05T05:30:07.737Z,17.80
2017-07-05T05:32:35.274Z,18.00
2017-07-05T05:35:02.782Z,18.10
2017-07-05T05:37:30.315Z,18.40
2017-07-05T05:39:57.833Z,18.60
2017-07-05T05:42:25.365Z,18.90
2017-07-05T05:44:53.286Z,19.30
2017-07-05T05:47:20.843Z,19.30
2017-07-05T05:49:48.346Z,19.60
2017-07-05T05:52:16.086Z,19.80
2017-07-05T05:54:43.630Z,20.00
2017-07-05T05:57:11.154Z,20.20
2017-07-05T05:59:39.075Z,20.60
2017-07-05T06:02:06.643Z,20.60
2017-07-05T06:04:34.351Z,20.80
2017-07-05T06:07:01.872Z,21.00
2017-07-05T06:09:29.411Z,21.10
2017-07-05T06:11:56.947Z,21.20
2017-07-05T06:14:24.454Z,21.30
2017-07-05T06:16:52.383Z,21.50
2017-07-05T06:19:19.902Z,21.50
2017-07-05T06:21:47.484Z,21.60
2017-07-05T06:24:15.018Z,21.70
2017-07-05T06:26:42.549Z,21.80
2017-07-05T06:29:10.086Z,21.90
2017-07-05T06:31:37.605Z,21.90
2017-07-05T06:34:05.160Z,22.00
2017-07-05T06:36:32.691Z,22.10
2017-07-05T06:39:00.245Z,22.10
2017-07-05T06:41:27.799Z,22.20
2017-07-05T06:43:55.342Z,22.30
2017-07-05T06:46:22.911Z,22.30
2017-07-05T06:48:50.451Z,22.50
2017-07-05T06:51:18.008Z,22.70
2017-07-05T06:53:45.567Z,22.90
2017-07-05T06:56:13.132Z,23.00
2017-07-05T06:58:40.664Z,23.10
2017-07-05T07:01:08.646Z,23.30
2017-07-05T07:03:36.200Z,23.30
2017-07-05T07:06:04.121Z,23.30
2017-07-05T07:08:31.774Z,23.30
2017-07-05T07:10:59.309Z,23.30
2017-07-05T07:13:26.880Z,23.40
2017-07-05T07:15:54.409Z,23.40
2017-07-05T07:18:21.945Z,23.60
2017-07-05T07:20:49.497Z,23.70
2017-07-05T07:23:17.039Z,23.70
2017-07-05T07:25:44.592Z,23.70
2017-07-05T07:28:12.128Z,23.80
2017-07-05T07:30:39.713Z,23.90
2017-07-05T07:33:07.258Z,24.00
2017-07-05T07:35:34.868Z,24.10
2017-07-05T07:38:02.414Z,24.20
2017-07-05T07:40:30.343Z,24.40
2017-07-05T07:42:57.897Z,24.40
2017-07-05T07:45:25.437Z,24.50
2017-07-05T07:47:53.002Z,24.50
2017-07-05T07:50:20.547Z,24.40
2017-07-05T07:52:48.144Z,24.40
2017-07-05T07:55:15.707Z,24.50
2017-07-05T07:57:43.281Z,24.50
2017-07-05T08:00:10.810Z,24.50
2017-07-05T08:02:38.350Z,24.60
2017-07-05T08:05:05.924Z,24.70
2017-07-05T08:07:33.452Z,24.80
2017-07-05T08:10:01.013Z,25.00
2017-07-05T08:12:28.549Z,25.10
2017-07-05T08:14:56.755Z,25.30
2017-07-05T08:17:24.331Z,25.30
2017-07-05T08:19:51.900Z,25.30
2017-07-05T08:22:19.417Z,25.40
2017-07-05T08:24:47.004Z,25.40
2017-07-05T08:27:14.562Z,25.10
2017-07-05T08:29:42.106Z,25.10
2017-07-05T08:32:09.661Z,25.20
2017-07-05T08:34:37.222Z,25.30
2017-07-05T08:37:04.856Z,25.40
2017-07-05T08:39:32.776Z,25.60
2017-07-05T08:42:00.291Z,25.60
2017-07-05T08:44:27.861Z,25.70
2017-07-05T08:46:55.428Z,25.80
2017-07-05T08:49:22.986Z,25.90
2017-07-05T08:51:50.519Z,25.90
2017-07-05T08:54:18.158Z,26.00
2017-07-05T08:56:45.685Z,25.80
2017-07-05T08:59:13.210Z,25.40
2017-07-05T09:01:40.773Z,25.00
2017-07-05T09:04:08.297Z,24.80
2017-07-05T09:06:36.233Z,25.10
2017-07-05T09:09:03.748Z,25.10
2017-07-05T09:11:31.290Z,25.20
2017-07-05T09:13:59.199Z,25.50
2017-07-05T09:16:26.781Z,25.50
2017-07-05T09:18:54.302Z,25.50
2017-07-05T09:21:21.825Z,25.50
2017-07-05T09:23:49.776Z,25.10
2017-07-05T09:26:17.342Z,25.00
2017-07-05T09:28:44.889Z,25.00
2017-07-05T09:31:12.407Z,25.00
2017-07-05T09:33:39.961Z,24.90
2017-07-05T09:36:07.492Z,24.90
2017-07-05T09:38:35.037Z,24.70
2017-07-05T09:41:02.563Z,24.60
2017-07-05T09:43:30.120Z,24.50
2017-07-05T09:45:57.657Z,24.60
2017-07-05T09:48:25.183Z,24.70
2017-07-05T09:50:53.141Z,25.10
2017-07-05T09:53:21.072Z,25.20
2017-07-05T09:55:48.628Z,25.20
2017-07-05T09:58:16.165Z,25.10
2017-07-05T10:00:43.731Z,25.10
2017-07-05T10:03:11.258Z,25.20
2017-07-05T10:05:38.841Z,25.40
2017-07-05T10:08:06.467Z,25.60
2017-07-05T10:10:34.404Z,25.30
2017-07-05T10:13:01.956Z,25.30
2017-07-05T10:15:29.660Z,25.10
2017-07-05T10:17:57.200Z,24.90
2017-07-05T10:20:24.917Z,24.90
2017-07-05T10:22:52.455Z,25.20
2017-07-05T10:25:19.984Z,25.40
2017-07-05T10:27:47.915Z,25.40
2017-07-05T10:30:15.442Z,25.40
2017-07-05T10:32:42.980Z,25.40
2017-07-05T10:35:10.911Z,25.50
2017-07-05T10:37:39.541Z,25.50
2017-07-05T10:40:07.080Z,25.50
2017-07-05T10:42:35.028Z,25.90
2017-07-05T10:45:02.570Z,25.90
2017-07-05T10:47:30.100Z,26.20
2017-07-05T10:49:57.656Z,26.30
2017-07-05T10:52:25.218Z,26.50
2017-07-05T10:54:52.741Z,26.70
2017-07-05T10:57:20.671Z,26.40
2017-07-05T10:59:48.309Z,26.40
2017-07-05T11:02:15.863Z,26.20
2017-07-05T11:04:43.402Z,26.10
2017-07-05T11:07:10.987Z,26.10
2017-07-05T11:09:38.521Z,26.00
2017-07-05T11:12:06.050Z,26.10
2017-07-05T11:14:33.596Z,26.00
2017-07-05T11:17:01.125Z,25.80
2017-07-05T11:19:28.723Z,25.60
2017-07-05T11:21:56.648Z,25.70
2017-07-05T11:24:24.195Z,25.70
2017-07-05T11:26:51.735Z,25.80
2017-07-05T11:29:19.267Z,25.90
2017-07-05T11:31:47.201Z,26.10
2017-07-05T11:34:14.743Z,26.10
2017-07-05T11:36:42.296Z,26.30
2017-07-05T11:39:09.825Z,26.50
2017-07-05T11:41:37.393Z,26.50
2017-07-05T11:44:04.926Z,26.50
2017-07-05T11:46:32.896Z,26.70
2017-07-05T11:49:00.823Z,26.70
2017-07-05T11:51:28.339Z,26.70
2017-07-05T11:53:55.883Z,26.60
2017-07-05T11:56:23.808Z,26.70
2017-07-05T11:58:51.368Z,26.70
2017-07-05T12:01:19.028Z,26.90
2017-07-05T12:03:46.573Z,26.90
2017-07-05T12:06:14.156Z,26.80
2017-07-05T12:08:41.721Z,26.80
2017-07-05T12:11:09.260Z,26.70
2017-07-05T12:13:36.795Z,26.80
2017-07-05T12:16:04.335Z,26.80
2017-07-05T12:18:31.857Z,26.80
2017-07-05T12:20:59.388Z,26.80
2017-07-05T12:23:26.926Z,26.80
2017-07-05T12:25:54.476Z,26.70
2017-07-05T12:28:22.016Z,26.60
2017-07-05T12:30:49.924Z,26.50
2017-07-05T12:33:17.488Z,26.60
2017-07-05T12:35:45.030Z,26.70
2017-07-05T12:38:12.568Z,26.90
2017-07-05T12:40:40.097Z,26.90
2017-07-05T12:43:07.644Z,26.80
2017-07-05T12:45:35.176Z,26.70
2017-07-05T12:48:02.696Z,26.50
2017-07-05T12:50:30.640Z,26.30
2017-07-05T12:52:58.161Z,26.30
2017-07-05T12:55:25.692Z,26.30
2017-07-05T12:57:53.215Z,26.20
2017-07-05T13:00:21.173Z,25.90
2017-07-05T13:02:48.704Z,25.90
2017-07-05T13:05:16.256Z,25.80
2017-07-05T13:07:43.784Z,25.90
2017-07-05T13:10:11.309Z,26.00
2017-07-05T13:12:39.268Z,26.30
2017-07-05T13:15:06.796Z,26.30
2017-07-05T13:17:34.442Z,26.50
2017-07-05T13:20:01.966Z,26.70
2017-07-05T13:22:29.911Z,27.00
2017-07-05T13:24:58.269Z,27.00
2017-07-05T13:27:25.840Z,27.20
2017-07-05T13:29:53.366Z,27.30
2017-07-05T13:32:20.909Z,27.40
2017-07-05T13:34:48.465Z,27.40
2017-07-05T13:37:15.985Z,27.60
2017-07-05T13:39:43.544Z,27.70
2017-07-05T13:42:11.472Z,27.90
2017-07-05T13:44:39.019Z,27.90
2017-07-05T13:47:06.527Z,27.80
2017-07-05T13:49:34.068Z,27.70
2017-07-05T13:52:01.656Z,27.60
2017-07-05T13:54:29.176Z,27.50
2017-07-05T13:56:56.737Z,27.30
2017-07-05T13:59:24.261Z,27.30
2017-07-05T14:01:51.907Z,27.20
2017-07-05T14:04:19.437Z,27.30
2017-07-05T14:06:46.981Z,27.40
2017-07-05T14:09:14.604Z,27.50
2017-07-05T14:11:42.154Z,27.40
2017-07-05T14:14:09.680Z,27.50
2017-07-05T14:16:37.605Z,27.50
2017-07-05T14:19:05.136Z,27.50
2017-07-05T14:21:32.660Z,27.40
2017-07-05T14:24:00.192Z,27.40
2017-07-05T14:26:27.722Z,27.50
2017-07-05T14:28:55.267Z,27.50
2017-07-05T14:31:22.793Z,27.50
2017-07-05T14:33:50.332Z,27.50
2017-07-05T14:36:17.864Z,27.40
2017-07-05T14:38:45.414Z,27.40
2017-07-05T14:41:12.965Z,27.40
2017-07-05T14:43:40.484Z,27.40
2017-07-05T14:46:08.424Z,27.50
2017-07-05T14:48:35.949Z,27.50
2017-07-05T14:51:03.494Z,27.70
2017-07-05T14:53:31.083Z,27.70
2017-07-05T14:55:58.620Z,27.70
2017-07-05T14:58:26.157Z,27.70
2017-07-05T15:00:54.084Z,27.80
2017-07-05T15:03:21.645Z,27.80
2017-07-05T15:05:49.176Z,27.70
2017-07-05T15:08:16.721Z,27.70
2017-07-05T15:10:44.236Z,27.50
2017-07-05T15:13:11.804Z,27.40
2017-07-05T15:15:39.343Z,27.30
2017-07-05T15:18:07.285Z,27.20
2017-07-05T15:20:34.854Z,27.20
2017-07-05T15:23:02.397Z,27.20
2017-07-05T15:25:30.765Z,27.10
2017-07-05T15:27:58.307Z,27.10
2017-07-05T15:30:25.861Z,27.10
2017-07-05T15:32:53.502Z,27.10
2017-07-05T15:35:21.059Z,27.00
2017-07-05T15:37:48.586Z,26.90
2017-07-05T15:40:16.627Z,26.70
2017-07-05T15:42:44.170Z,26.70
2017-07-05T15:45:11.691Z,26.80
2017-07-05T15:47:39.224Z,26.80
2017-07-05T15:50:06.772Z,26.90
2017-07-05T15:52:34.310Z,26.90
2017-07-05T15:55:01.832Z,26.90
2017-07-05T15:57:30.088Z,27.00
2017-07-05T15:59:57.638Z,27.00
2017-07-05T16:02:25.599Z,27.10
2017-07-05T16:04:53.113Z,27.10
2017-07-05T16:07:20.672Z,27.10
2017-07-05T16:09:48.210Z,27.10
2017-07-05T16:12:15.741Z,27.10
2017-07-05T16:14:43.696Z,27.20
2017-07-05T16:17:11.216Z,27.20
2017-07-05T16:19:38.772Z,27.20
2017-07-05T16:22:06.295Z,27.10
2017-07-05T16:24:33.849Z,27.10
2017-07-05T16:27:01.764Z,27.00
2017-07-05T16:29:30.015Z,27.00
2017-07-05T16:31:57.551Z,27.00
2017-07-05T16:34:25.469Z,27.00
2017-07-05T16:36:52.999Z,27.00
2017-07-05T16:39:20.522Z,27.00
2017-07-05T16:41:48.551Z,27.00
2017-07-05T16:44:16.082Z,27.00
2017-07-05T16:46:43.639Z,27.00
2017-07-05T16:49:11.183Z,26.90
2017-07-05T16:51:38.720Z,26.90
2017-07-05T16:54:06.738Z,26.70
2017-07-05T16:56:34.261Z,26.70
2017-07-05T16:59:02.205Z,26.70
2017-07-05T17:01:29.737Z,26.70
2017-07-05T17:03:57.287Z,26.80
2017-07-05T17:06:24.827Z,26.80
2017-07-05T17:08:52.400Z,26.80
2017-07-05T17:11:19.942Z,26.70
2017-07-05T17:13:48.299Z,26.70
2017-07-05T17:16:15.992Z,26.70
2017-07-05T17:18:43.509Z,26.70
2017-07-05T17:21:11.078Z,26.70
2017-07-05T17:23:38.606Z,26.70
2017-07-05T17:26:06.131Z,26.70
2017-07-05T17:28:33.673Z,26.70
2017-07-05T17:31:01.195Z,26.80
2017-07-05T17:33:30.217Z,26.80
2017-07-05T17:35:57.749Z,26.70
2017-07-05T17:38:25.664Z,26.70
2017-07-05T17:40:53.213Z,26.70
2017-07-05T17:43:20.863Z,26.60
2017-07-05T17:45:48.410Z,26.60
2017-07-05T17:48:16.005Z,26.50
2017-07-05T17:50:43.579Z,26.60
2017-07-05T17:53:11.102Z,26.60
2017-07-05T17:55:38.647Z,26.60
2017-07-05T17:58:06.214Z,26.50
2017-07-05T18:00:33.768Z,26.50
2017-07-05T18:03:01.309Z,26.50
2017-07-05T18:05:29.248Z,26.50
2017-07-05T18:07:57.021Z,26.50
2017-07-05T18:10:24.577Z,26.40
2017-07-05T18:12:52.318Z,26.40
2017-07-05T18:15:19.828Z,26.40
2017-07-05T18:17:47.539Z,26.40
2017-07-05T18:20:15.075Z,26.40
2017-07-05T18:22:42.791Z,26.30
2017-07-05T18:25:10.757Z,26.30
2017-07-05T18:27:38.694Z,26.20
2017-07-05T18:30:06.273Z,26.20
2017-07-05T18:32:33.793Z,26.20
2017-07-05T18:35:01.334Z,26.10
2017-07-05T18:37:29.251Z,26.10
2017-07-05T18:39:56.809Z,26.00
2017-07-05T18:42:24.401Z,25.90
2017-07-05T18:44:51.934Z,25.90
2017-07-05T18:47:19.477Z,25.80
2017-07-05T18:49:47.030Z,25.60
2017-07-05T18:52:14.593Z,25.60
2017-07-05T18:54:42.127Z,25.50
2017-07-05T18:57:09.693Z,25.40
2017-07-05T18:59:37.292Z,25.40
2017-07-05T19:02:05.249Z,25.20
2017-07-05T19:04:32.772Z,25.30
2017-07-05T19:07:01.599Z,25.20
2017-07-05T19:09:30.212Z,25.10
2017-07-05T19:11:57.746Z,25.00
2017-07-05T19:14:25.696Z,24.80
2017-07-05T19:16:53.222Z,24.80
2017-07-05T19:19:20.776Z,24.70
2017-07-05T19:21:48.309Z,24.60
2017-07-05T19:24:15.864Z,24.60
2017-07-05T19:26:43.411Z,24.50
2017-07-05T19:29:11.333Z,24.40
2017-07-05T19:31:38.955Z,24.40
2017-07-05T19:34:06.607Z,24.30
2017-07-05T19:36:34.605Z,24.20
2017-07-05T19:39:02.156Z,24.20
2017-07-05T19:41:29.724Z,24.10
2017-07-05T19:43:57.260Z,24.00
2017-07-05T19:46:24.831Z,23.90
2017-07-05T19:48:52.415Z,23.80
2017-07-05T19:51:19.944Z,23.70
2017-07-05T19:53:47.488Z,23.60
2017-07-05T19:56:15.068Z,23.50
2017-07-05T19:58:42.635Z,23.40
2017-07-05T20:01:10.187Z,23.30
2017-07-05T20:03:38.858Z,23.20
2017-07-05T20:06:06.389Z,23.10
2017-07-05T20:08:34.475Z,22.90
2017-07-05T20:11:02.756Z,22.80
2017-07-05T20:13:30.913Z,22.80
2017-07-05T20:15:59.338Z,22.60
2017-07-05T20:18:26.855Z,22.60
2017-07-05T20:20:54.804Z,22.30
2017-07-05T20:23:22.371Z,22.40
2017-07-05T20:25:50.346Z,22.20
2017-07-05T20:28:18.316Z,22.10
2017-07-05T20:30:46.252Z,22.00
2017-07-05T20:33:13.827Z,22.10
2017-07-05T20:35:41.363Z,21.90
2017-07-05T20:38:13.611Z,21.80
2017-07-05T20:40:41.151Z,21.70
2017-07-05T20:43:11.749Z,21.60
2017-07-05T20:45:39.668Z,21.50
2017-07-05T20:48:09.879Z,21.50
2017-07-05T20:50:37.429Z,21.30
2017-07-05T20:53:06.132Z,21.30
2017-07-05T20:55:36.554Z,21.10
2017-07-05T20:58:04.076Z,21.10
2017-07-05T21:00:31.619Z,21.00
2017-07-05T21:03:00.132Z,21.00
2017-07-05T21:05:27.705Z,20.90
2017-07-05T21:07:56.823Z,20.80
2017-07-05T21:10:24.378Z,20.70
2017-07-05T21:12:51.905Z,20.70
2017-07-05T21:15:19.485Z,20.60
2017-07-05T21:17:49.881Z,20.50
2017-07-05T21:20:17.418Z,20.40
2017-07-05T21:22:45.353Z,20.30
2017-07-05T21:25:16.114Z,20.40
2017-07-05T21:27:43.686Z,20.30
2017-07-05T21:30:11.260Z,20.20
2017-07-05T21:32:41.340Z,20.20
2017-07-05T21:35:13.058Z,20.10
2017-07-05T21:37:40.609Z,20.10
2017-07-05T21:40:08.258Z,20.00
2017-07-05T21:42:35.801Z,20.00
2017-07-05T21:45:04.809Z,20.00
2017-07-05T21:47:34.490Z,20.00
2017-07-05T21:50:02.474Z,19.90
2017-07-05T21:52:31.059Z,19.90
2017-07-05T21:54:59.363Z,19.90
2017-07-05T21:57:29.787Z,19.80
2017-07-05T22:00:00.323Z,19.80
2017-07-05T22:02:31.818Z,19.80
2017-07-05T22:05:04.851Z,19.80
2017-07-05T22:07:34.934Z,19.80
2017-07-05T22:10:02.452Z,19.70
2017-07-05T22:12:33.352Z,19.70
2017-07-05T22:15:00.884Z,19.60
2017-07-05T22:17:29.247Z,19.60
2017-07-05T22:19:57.173Z,19.50
2017-07-05T22:22:27.900Z,19.60
2017-07-05T22:24:59.283Z,19.50
2017-07-05T22:27:26.844Z,19.50
2017-07-05T22:29:54.375Z,19.40
2017-07-05T22:32:21.948Z,19.40
2017-07-05T22:34:49.502Z,19.40
2017-07-05T22:37:21.457Z,19.30
2017-07-05T22:39:49.005Z,19.30
2017-07-05T22:42:16.535Z,19.30
2017-07-05T22:44:44.075Z,19.20
2017-07-05T22:47:12.003Z,19.10
2017-07-05T22:49:39.565Z,19.20
2017-07-05T22:52:07.096Z,19.10
2017-07-05T22:54:36.983Z,19.10
2017-07-05T22:57:04.552Z,19.10
2017-07-05T22:59:32.096Z,19.00
2017-07-05T23:02:00.935Z,18.90
2017-07-05T23:04:32.022Z,18.90
2017-07-05T23:07:00.545Z,18.90
2017-07-05T23:09:28.093Z,18.80
2017-07-05T23:11:55.646Z,18.80
2017-07-05T23:14:23.187Z,18.80
2017-07-05T23:16:50.714Z,18.80
2017-07-05T23:19:23.083Z,18.80
2017-07-05T23:21:50.611Z,18.80
2017-07-05T23:24:18.150Z,18.80
2017-07-05T23:26:51.744Z,18.80
2017-07-05T23:29:19.299Z,18.80
2017-07-05T23:31:46.829Z,18.80
2017-07-05T23:34:14.792Z,18.90
2017-07-05T23:36:42.716Z,18.90
2017-07-05T23:39:10.242Z,18.90
2017-07-05T23:41:37.805Z,18.80
2017-07-05T23:44:08.222Z,18.80
2017-07-05T23:46:39.084Z,18.80
2017-07-05T23:49:06.627Z,18.80
2017-07-05T23:51:34.172Z,18.70
2017-07-05T23:54:02.097Z,18.60
2017-07-05T23:56:30.671Z,18.70
2017-07-05T23:58:58.217Z,18.60
